sensor_id;sensor_type;location;lat;lon;timestamp;pressure;altitude;pressure_sealevel;temperature;humidity
41688;BME280;27371;42.686;23.362;2023-02-28T00:00:25;163792.88;;;6.12;100.00
41688;BME280;27371;42.686;23.362;2023-02-28T00:02:50;163800.84;;;6.15;100.00
41688;BME280;27371;42.686;23.362;2023-02-28T00:05:19;163810.16;;;6.19;99.68
41688;BME280;27371;42.686;23.362;2023-02-28T00:07:45;163755.50;;;5.98;97.74
41688;BME280;27371;42.686;23.362;2023-02-28T00:10:14;163743.56;;;5.93;97.21
41688;BME280;27371;42.686;23.362;2023-02-28T00:12:40;163728.84;;;5.88;97.35
41688;BME280;27371;42.686;23.362;2023-02-28T00:15:10;163746.19;;;5.94;98.14
41688;BME280;27371;42.686;23.362;2023-02-28T00:17:36;163738.16;;;5.91;98.18
41688;BME280;27371;42.686;23.362;2023-02-28T00:20:03;163731.50;;;5.89;98.74
41688;BME280;27371;42.686;23.362;2023-02-28T00:22:49;163751.53;;;5.96;99.06
41688;BME280;27371;42.686;23.362;2023-02-28T00:25:21;163768.84;;;6.03;99.17
41688;BME280;27371;42.686;23.362;2023-02-28T00:27:47;163778.22;;;6.07;99.16
41688;BME280;27371;42.686;23.362;2023-02-28T00:30:18;163784.81;;;6.09;99.17
41688;BME280;27371;42.686;23.362;2023-02-28T00:32:44;163750.22;;;5.96;98.89
41688;BME280;27371;42.686;23.362;2023-02-28T00:35:11;163762.19;;;6.00;99.06
41688;BME280;27371;42.686;23.362;2023-02-28T00:37:36;163766.19;;;6.02;99.22
41688;BME280;27371;42.686;23.362;2023-02-28T00:40:02;163778.22;;;6.07;98.79
41688;BME280;27371;42.686;23.362;2023-02-28T00:42:30;163759.53;;;5.99;98.67
41688;BME280;27371;42.686;23.362;2023-02-28T00:44:55;163752.88;;;5.97;98.90
41688;BME280;27371;42.686;23.362;2023-02-28T00:47:21;163779.53;;;6.07;98.68
41688;BME280;27371;42.686;23.362;2023-02-28T00:49:47;163750.22;;;5.96;97.99
41688;BME280;27371;42.686;23.362;2023-02-28T00:52:12;163710.16;;;5.80;98.02
41688;BME280;27371;42.686;23.362;2023-02-28T00:54:37;163700.88;;;5.77;98.16
41688;BME280;27371;42.686;23.362;2023-02-28T00:57:03;163672.88;;;5.66;98.11
41688;BME280;27371;42.686;23.362;2023-02-28T00:59:29;163631.56;;;5.50;98.61
41688;BME280;27371;42.686;23.362;2023-02-28T01:04:29;163600.94;;;5.39;95.52
41688;BME280;27371;42.686;23.362;2023-02-28T01:06:54;163546.31;;;5.18;95.51
41688;BME280;27371;42.686;23.362;2023-02-28T01:09:20;163529.03;;;5.11;96.26
41688;BME280;27371;42.686;23.362;2023-02-28T01:11:45;163537.00;;;5.14;96.76
41688;BME280;27371;42.686;23.362;2023-02-28T01:14:13;163554.31;;;5.21;97.93
41688;BME280;27371;42.686;23.362;2023-02-28T01:16:38;163567.63;;;5.26;98.61
41688;BME280;27371;42.686;23.362;2023-02-28T01:19:04;163594.28;;;5.36;98.59
41688;BME280;27371;42.686;23.362;2023-02-28T01:21:30;163612.97;;;5.43;98.92
41688;BME280;27371;42.686;23.362;2023-02-28T01:23:57;163654.22;;;5.59;98.78
41688;BME280;27371;42.686;23.362;2023-02-28T01:26:24;163675.53;;;5.67;98.86
41688;BME280;27371;42.686;23.362;2023-02-28T01:28:50;163668.88;;;5.65;98.56
41688;BME280;27371;42.686;23.362;2023-02-28T01:31:17;163702.19;;;5.77;98.51
41688;BME280;27371;42.686;23.362;2023-02-28T01:33:43;163686.22;;;5.71;98.10
41688;BME280;27371;42.686;23.362;2023-02-28T01:36:11;163706.19;;;5.79;98.43
41688;BME280;27371;42.686;23.362;2023-02-28T01:38:36;163704.84;;;5.78;98.04
41688;BME280;27371;42.686;23.362;2023-02-28T01:41:03;163736.84;;;5.91;97.77
41688;BME280;27371;42.686;23.362;2023-02-28T01:46:14;163743.56;;;5.93;97.37
41688;BME280;27371;42.686;23.362;2023-02-28T01:48:47;163743.56;;;5.93;97.23
41688;BME280;27371;42.686;23.362;2023-02-28T01:51:20;163756.88;;;5.98;96.98
41688;BME280;27371;42.686;23.362;2023-02-28T01:53:49;163748.84;;;5.95;96.86
41688;BME280;27371;42.686;23.362;2023-02-28T01:56:20;163762.19;;;6.00;96.74
41688;BME280;27371;42.686;23.362;2023-02-28T01:58:49;163719.47;;;5.84;95.71
41688;BME280;27371;42.686;23.362;2023-02-28T02:01:16;163650.25;;;5.57;93.30
41688;BME280;27371;42.686;23.362;2023-02-28T02:03:58;163578.31;;;5.30;93.05
41688;BME280;27371;42.686;23.362;2023-02-28T02:06:37;163518.34;;;5.07;94.56
41688;BME280;27371;42.686;23.362;2023-02-28T02:09:03;163578.31;;;5.30;96.03
41688;BME280;27371;42.686;23.362;2023-02-28T02:11:29;163586.31;;;5.33;96.69
41688;BME280;27371;42.686;23.362;2023-02-28T02:17:23;163612.97;;;5.43;97.80
41688;BME280;27371;42.686;23.362;2023-02-28T02:25:38;163622.25;;;5.47;98.04
41688;BME280;27371;42.686;23.362;2023-02-28T02:36:47;163670.25;;;5.65;97.61
41688;BME280;27371;42.686;23.362;2023-02-28T02:39:25;163682.19;;;5.70;97.30
41688;BME280;27371;42.686;23.362;2023-02-28T02:41:59;163679.53;;;5.69;97.24
41688;BME280;27371;42.686;23.362;2023-02-28T02:44:27;163680.88;;;5.69;97.06
41688;BME280;27371;42.686;23.362;2023-02-28T02:47:01;163679.53;;;5.69;97.32
41688;BME280;27371;42.686;23.362;2023-02-28T02:49:31;163692.88;;;5.74;97.33
41688;BME280;27371;42.686;23.362;2023-02-28T02:52:02;163700.88;;;5.77;97.33
41688;BME280;27371;42.686;23.362;2023-02-28T02:54:31;163711.50;;;5.81;97.29
41688;BME280;27371;42.686;23.362;2023-02-28T02:57:01;163679.53;;;5.69;95.56
41688;BME280;27371;42.686;23.362;2023-02-28T02:59:30;163600.94;;;5.39;93.61
41688;BME280;27371;42.686;23.362;2023-02-28T03:01:58;163541.03;;;5.16;93.99
41688;BME280;27371;42.686;23.362;2023-02-28T03:04:28;163550.34;;;5.19;95.89
41688;BME280;27371;42.686;23.362;2023-02-28T03:06:56;163583.59;;;5.32;96.79
41688;BME280;27371;42.686;23.362;2023-02-28T03:09:22;163592.97;;;5.35;97.52
41688;BME280;27371;42.686;23.362;2023-02-28T03:11:48;163611.59;;;5.43;98.09
41688;BME280;27371;42.686;23.362;2023-02-28T03:17:16;163615.59;;;5.44;98.20
41688;BME280;27371;42.686;23.362;2023-02-28T03:22:30;163598.31;;;5.38;98.44
41688;BME280;27371;42.686;23.362;2023-02-28T03:30:24;163606.28;;;5.41;98.90
41688;BME280;27371;42.686;23.362;2023-02-28T03:33:10;163610.25;;;5.42;98.97
41688;BME280;27371;42.686;23.362;2023-02-28T03:35:42;163579.63;;;5.30;99.25
41688;BME280;27371;42.686;23.362;2023-02-28T03:38:29;163620.94;;;5.46;98.82
41688;BME280;27371;42.686;23.362;2023-02-28T03:41:05;163594.28;;;5.36;98.80
41688;BME280;27371;42.686;23.362;2023-02-28T03:43:34;163591.63;;;5.35;99.11
41688;BME280;27371;42.686;23.362;2023-02-28T03:46:03;163591.63;;;5.35;99.02
41688;BME280;27371;42.686;23.362;2023-02-28T03:48:48;163586.31;;;5.33;99.45
41688;BME280;27371;42.686;23.362;2023-02-28T03:51:18;163602.28;;;5.39;99.45
41688;BME280;27371;42.686;23.362;2023-02-28T03:53:56;163584.97;;;5.32;98.37
41688;BME280;27371;42.686;23.362;2023-02-28T03:56:38;163509.03;;;5.03;95.80
41688;BME280;27371;42.686;23.362;2023-02-28T03:59:17;163441.16;;;4.77;95.82
41688;BME280;27371;42.686;23.362;2023-02-28T04:01:48;163447.81;;;4.80;97.75
41688;BME280;27371;42.686;23.362;2023-02-28T04:04:15;163454.44;;;4.82;98.64
41688;BME280;27371;42.686;23.362;2023-02-28T04:06:42;163478.44;;;4.91;99.49
41688;BME280;27371;42.686;23.362;2023-02-28T04:09:10;163487.75;;;4.95;100.00
41688;BME280;27371;42.686;23.362;2023-02-28T04:11:50;163498.41;;;4.99;100.00
41688;BME280;27371;42.686;23.362;2023-02-28T04:14:19;163513.06;;;5.05;100.00
41688;BME280;27371;42.686;23.362;2023-02-28T04:16:44;163533.00;;;5.12;100.00
41688;BME280;27371;42.686;23.362;2023-02-28T04:19:11;163562.34;;;5.24;100.00
41688;BME280;27371;42.686;23.362;2023-02-28T04:21:42;163563.66;;;5.24;100.00
41688;BME280;27371;42.686;23.362;2023-02-28T04:24:10;163533.00;;;5.12;100.00
41688;BME280;27371;42.686;23.362;2023-02-28T04:26:40;163566.31;;;5.25;100.00
41688;BME280;27371;42.686;23.362;2023-02-28T04:29:06;163579.63;;;5.30;100.00
41688;BME280;27371;42.686;23.362;2023-02-28T04:31:33;163588.94;;;5.34;100.00
41688;BME280;27371;42.686;23.362;2023-02-28T04:34:00;163588.94;;;5.34;100.00
41688;BME280;27371;42.686;23.362;2023-02-28T04:36:26;163591.63;;;5.35;100.00
41688;BME280;27371;42.686;23.362;2023-02-28T04:38:51;163572.97;;;5.28;100.00
41688;BME280;27371;42.686;23.362;2023-02-28T04:41:18;163541.03;;;5.16;100.00
41688;BME280;27371;42.686;23.362;2023-02-28T04:43:43;163505.09;;;5.02;100.00
41688;BME280;27371;42.686;23.362;2023-02-28T04:46:09;163510.38;;;5.04;100.00
41688;BME280;27371;42.686;23.362;2023-02-28T04:48:37;163473.09;;;4.89;100.00
41688;BME280;27371;42.686;23.362;2023-02-28T04:51:12;163459.78;;;4.84;100.00
41688;BME280;27371;42.686;23.362;2023-02-28T04:53:39;163385.22;;;4.56;100.00
41688;BME280;27371;42.686;23.362;2023-02-28T04:56:06;163349.28;;;4.42;99.87
41688;BME280;27371;42.686;23.362;2023-02-28T04:58:32;163351.94;;;4.43;100.00
41688;BME280;27371;42.686;23.362;2023-02-28T05:01:36;163374.56;;;4.52;100.00
41688;BME280;27371;42.686;23.362;2023-02-28T05:04:03;163423.81;;;4.71;100.00
41688;BME280;27371;42.686;23.362;2023-02-28T05:06:31;163446.44;;;4.79;100.00
41688;BME280;27371;42.686;23.362;2023-02-28T05:08:57;163471.78;;;4.89;100.00
41688;BME280;27371;42.686;23.362;2023-02-28T05:13:49;163511.69;;;5.04;100.00
41688;BME280;27371;42.686;23.362;2023-02-28T05:16:15;163563.66;;;5.24;100.00
41688;BME280;27371;42.686;23.362;2023-02-28T05:18:40;163582.28;;;5.31;100.00
41688;BME280;27371;42.686;23.362;2023-02-28T05:21:12;163565.00;;;5.25;100.00
41688;BME280;27371;42.686;23.362;2023-02-28T05:23:48;163535.69;;;5.13;100.00
41688;BME280;27371;42.686;23.362;2023-02-28T05:26:14;163525.00;;;5.09;100.00
41688;BME280;27371;42.686;23.362;2023-02-28T05:28:39;163515.72;;;5.06;100.00
41688;BME280;27371;42.686;23.362;2023-02-28T05:31:05;163521.03;;;5.08;100.00
41688;BME280;27371;42.686;23.362;2023-02-28T05:33:30;163527.72;;;5.10;100.00
41688;BME280;27371;42.686;23.362;2023-02-28T05:35:56;163525.00;;;5.09;100.00
41688;BME280;27371;42.686;23.362;2023-02-28T05:38:21;163552.97;;;5.20;100.00
41688;BME280;27371;42.686;23.362;2023-02-28T05:40:46;163586.31;;;5.33;100.00
41688;BME280;27371;42.686;23.362;2023-02-28T05:43:12;163607.63;;;5.41;100.00
41688;BME280;27371;42.686;23.362;2023-02-28T05:45:37;163611.59;;;5.43;100.00
41688;BME280;27371;42.686;23.362;2023-02-28T05:48:03;163602.28;;;5.39;100.00
41688;BME280;27371;42.686;23.362;2023-02-28T05:50:28;163566.31;;;5.25;100.00
41688;BME280;27371;42.686;23.362;2023-02-28T05:52:54;163600.94;;;5.39;100.00
41688;BME280;27371;42.686;23.362;2023-02-28T05:55:19;163571.66;;;5.27;100.00
41688;BME280;27371;42.686;23.362;2023-02-28T05:57:45;163513.06;;;5.05;98.79
41688;BME280;27371;42.686;23.362;2023-02-28T06:00:11;163454.44;;;4.82;97.90
41688;BME280;27371;42.686;23.362;2023-02-28T06:02:39;163410.50;;;4.65;98.46
41688;BME280;27371;42.686;23.362;2023-02-28T06:05:08;163437.13;;;4.76;100.00
41688;BME280;27371;42.686;23.362;2023-02-28T06:07:37;163473.09;;;4.89;100.00
41688;BME280;27371;42.686;23.362;2023-02-28T06:10:03;163494.41;;;4.98;100.00
41688;BME280;27371;42.686;23.362;2023-02-28T06:12:29;163501.06;;;5.00;100.00
41688;BME280;27371;42.686;23.362;2023-02-28T06:14:55;163539.66;;;5.15;100.00
41688;BME280;27371;42.686;23.362;2023-02-28T06:17:20;163534.38;;;5.13;100.00
41688;BME280;27371;42.686;23.362;2023-02-28T06:19:45;163526.34;;;5.10;100.00
41688;BME280;27371;42.686;23.362;2023-02-28T06:22:11;163546.31;;;5.18;100.00
41688;BME280;27371;42.686;23.362;2023-02-28T06:24:36;163554.31;;;5.21;100.00
41688;BME280;27371;42.686;23.362;2023-02-28T06:27:02;163502.38;;;5.01;99.16
41688;BME280;27371;42.686;23.362;2023-02-28T06:29:34;163469.13;;;4.88;98.43
41688;BME280;27371;42.686;23.362;2023-02-28T06:32:00;163410.50;;;4.65;98.71
41688;BME280;27371;42.686;23.362;2023-02-28T06:34:25;163478.44;;;4.91;100.00
41688;BME280;27371;42.686;23.362;2023-02-28T06:36:52;163487.75;;;4.95;100.00
41688;BME280;27371;42.686;23.362;2023-02-28T06:39:18;163502.38;;;5.01;100.00
41688;BME280;27371;42.686;23.362;2023-02-28T06:41:43;163506.41;;;5.02;100.00
41688;BME280;27371;42.686;23.362;2023-02-28T06:44:15;163506.41;;;5.02;100.00
41688;BME280;27371;42.686;23.362;2023-02-28T06:46:42;163505.09;;;5.02;100.00
41688;BME280;27371;42.686;23.362;2023-02-28T06:49:09;163501.06;;;5.00;100.00
41688;BME280;27371;42.686;23.362;2023-02-28T06:51:35;163493.06;;;4.97;100.00
41688;BME280;27371;42.686;23.362;2023-02-28T06:54:01;163525.00;;;5.09;100.00
41688;BME280;27371;42.686;23.362;2023-02-28T06:56:27;163473.09;;;4.89;99.38
41688;BME280;27371;42.686;23.362;2023-02-28T06:58:53;163371.91;;;4.51;97.60
41688;BME280;27371;42.686;23.362;2023-02-28T07:01:18;163338.63;;;4.38;98.77
41688;BME280;27371;42.686;23.362;2023-02-28T07:03:45;163338.63;;;4.38;99.69
41688;BME280;27371;42.686;23.362;2023-02-28T07:06:10;163381.22;;;4.54;100.00
41688;BME280;27371;42.686;23.362;2023-02-28T07:08:36;163423.81;;;4.71;100.00
41688;BME280;27371;42.686;23.362;2023-02-28T07:11:02;163439.78;;;4.77;100.00
41688;BME280;27371;42.686;23.362;2023-02-28T07:13:28;163453.09;;;4.82;100.00
41688;BME280;27371;42.686;23.362;2023-02-28T07:15:55;163477.09;;;4.91;100.00
41688;BME280;27371;42.686;23.362;2023-02-28T07:18:21;163491.75;;;4.97;100.00
41688;BME280;27371;42.686;23.362;2023-02-28T07:20:47;163513.06;;;5.05;100.00
41688;BME280;27371;42.686;23.362;2023-02-28T07:23:12;163518.34;;;5.07;100.00
41688;BME280;27371;42.686;23.362;2023-02-28T07:25:38;163534.38;;;5.13;100.00
41688;BME280;27371;42.686;23.362;2023-02-28T07:28:04;163586.31;;;5.33;100.00
41688;BME280;27371;42.686;23.362;2023-02-28T07:30:30;163603.59;;;5.40;100.00
41688;BME280;27371;42.686;23.362;2023-02-28T07:32:55;163623.59;;;5.47;100.00
41688;BME280;27371;42.686;23.362;2023-02-28T07:35:22;163642.25;;;5.54;100.00
41688;BME280;27371;42.686;23.362;2023-02-28T07:37:48;163656.91;;;5.60;100.00
41688;BME280;27371;42.686;23.362;2023-02-28T07:40:13;163667.53;;;5.64;100.00
41688;BME280;27371;42.686;23.362;2023-02-28T07:42:41;163696.84;;;5.75;100.00
41688;BME280;27371;42.686;23.362;2023-02-28T07:45:08;163731.50;;;5.89;100.00
41688;BME280;27371;42.686;23.362;2023-02-28T07:47:37;163767.53;;;6.02;100.00
41688;BME280;27371;42.686;23.362;2023-02-28T07:50:02;163818.16;;;6.22;100.00
41688;BME280;27371;42.686;23.362;2023-02-28T07:52:28;163811.50;;;6.19;100.00
41688;BME280;27371;42.686;23.362;2023-02-28T07:54:53;163820.81;;;6.23;99.85
41688;BME280;27371;42.686;23.362;2023-02-28T07:57:19;163808.84;;;6.18;99.71
41688;BME280;27371;42.686;23.362;2023-02-28T07:59:44;163846.16;;;6.33;99.82
41688;BME280;27371;42.686;23.362;2023-02-28T08:02:13;163867.47;;;6.41;97.35
41688;BME280;27371;42.686;23.362;2023-02-28T08:04:39;163790.16;;;6.11;93.73
41688;BME280;27371;42.686;23.362;2023-02-28T08:07:05;163782.19;;;6.08;95.02
41688;BME280;27371;42.686;23.362;2023-02-28T08:09:32;163800.84;;;6.15;96.07
41688;BME280;27371;42.686;23.362;2023-02-28T08:11:58;163871.50;;;6.42;96.73
41688;BME280;27371;42.686;23.362;2023-02-28T08:14:23;163918.13;;;6.60;97.49
41688;BME280;27371;42.686;23.362;2023-02-28T08:16:49;163967.47;;;6.79;97.05
41688;BME280;27371;42.686;23.362;2023-02-28T08:19:14;164004.78;;;6.94;97.13
41688;BME280;27371;42.686;23.362;2023-02-28T08:21:40;164051.47;;;7.11;96.97
41688;BME280;27371;42.686;23.362;2023-02-28T08:24:05;164082.13;;;7.23;96.82
41688;BME280;27371;42.686;23.362;2023-02-28T08:26:32;164168.81;;;7.56;97.11
41688;BME280;27371;42.686;23.362;2023-02-28T08:28:57;164239.53;;;7.84;96.69
41688;BME280;27371;42.686;23.362;2023-02-28T08:31:23;164271.53;;;7.96;96.23
41688;BME280;27371;42.686;23.362;2023-02-28T08:33:49;164316.91;;;8.13;95.72
41688;BME280;27371;42.686;23.362;2023-02-28T08:36:17;164383.69;;;8.39;95.79
41688;BME280;27371;42.686;23.362;2023-02-28T08:38:42;164441.06;;;8.61;95.02
41688;BME280;27371;42.686;23.362;2023-02-28T08:41:10;164443.72;;;8.62;94.33
41688;BME280;27371;42.686;23.362;2023-02-28T08:43:36;164471.75;;;8.73;93.79
41688;BME280;27371;42.686;23.362;2023-02-28T08:46:02;164486.44;;;8.78;94.06
41688;BME280;27371;42.686;23.362;2023-02-28T08:48:30;164538.47;;;8.98;94.50
41688;BME280;27371;42.686;23.362;2023-02-28T08:53:22;164650.66;;;9.41;92.33
41688;BME280;27371;42.686;23.362;2023-02-28T08:55:56;164643.97;;;9.39;91.17
41688;BME280;27371;42.686;23.362;2023-02-28T08:58:21;164621.28;;;9.30;90.12
41688;BME280;27371;42.686;23.362;2023-02-28T09:00:47;164622.63;;;9.30;91.33
41688;BME280;27371;42.686;23.362;2023-02-28T09:03:12;164657.34;;;9.44;91.25
41688;BME280;27371;42.686;23.362;2023-02-28T09:05:38;164658.66;;;9.44;89.62
41688;BME280;27371;42.686;23.362;2023-02-28T09:08:03;164621.28;;;9.30;89.22
41688;BME280;27371;42.686;23.362;2023-02-28T09:10:29;164623.94;;;9.31;90.07
41688;BME280;27371;42.686;23.362;2023-02-28T09:12:54;164676.00;;;9.51;89.97
41688;BME280;27371;42.686;23.362;2023-02-28T09:15:20;164726.75;;;9.70;89.15
41688;BME280;27371;42.686;23.362;2023-02-28T09:17:45;164753.47;;;9.80;88.38
41688;BME280;27371;42.686;23.362;2023-02-28T09:20:11;164750.84;;;9.79;86.40
41688;BME280;27371;42.686;23.362;2023-02-28T09:22:37;164722.78;;;9.69;87.26
41688;BME280;27371;42.686;23.362;2023-02-28T09:25:03;164729.47;;;9.71;87.08
41688;BME280;27371;42.686;23.362;2023-02-28T09:27:28;164749.50;;;9.79;87.67
41688;BME280;27371;42.686;23.362;2023-02-28T09:29:54;164793.56;;;9.96;85.21
41688;BME280;27371;42.686;23.362;2023-02-28T09:32:19;164748.13;;;9.78;85.35
41688;BME280;27371;42.686;23.362;2023-02-28T09:34:45;164720.13;;;9.68;85.34
41688;BME280;27371;42.686;23.362;2023-02-28T09:37:10;164713.44;;;9.65;85.77
41688;BME280;27371;42.686;23.362;2023-02-28T09:39:36;164724.09;;;9.69;85.51
41688;BME280;27371;42.686;23.362;2023-02-28T09:42:02;164752.16;;;9.80;86.00
41688;BME280;27371;42.686;23.362;2023-02-28T09:44:35;164773.53;;;9.88;86.24
41688;BME280;27371;42.686;23.362;2023-02-28T09:49:43;164781.53;;;9.91;84.25
41688;BME280;27371;42.686;23.362;2023-02-28T09:52:38;164824.28;;;10.08;84.32
41688;BME280;27371;42.686;23.362;2023-02-28T09:55:28;164856.34;;;10.20;83.47
41688;BME280;27371;42.686;23.362;2023-02-28T09:57:56;164843.00;;;10.15;82.62
41688;BME280;27371;42.686;23.362;2023-02-28T10:00:32;164851.03;;;10.18;82.42
41688;BME280;27371;42.686;23.362;2023-02-28T10:08:51;164848.31;;;10.17;80.86
41688;BME280;27371;42.686;23.362;2023-02-28T10:11:17;164780.22;;;9.91;81.17
41688;BME280;27371;42.686;23.362;2023-02-28T10:16:35;164869.69;;;10.25;82.47
41688;BME280;27371;42.686;23.362;2023-02-28T10:19:11;164873.72;;;10.26;81.11
41688;BME280;27371;42.686;23.362;2023-02-28T10:21:42;164888.47;;;10.32;81.37
41688;BME280;27371;42.686;23.362;2023-02-28T10:24:30;164971.28;;;10.64;80.54
41688;BME280;27371;42.686;23.362;2023-02-28T10:29:40;165010.09;;;10.79;78.40
41688;BME280;27371;42.686;23.362;2023-02-28T10:32:11;165038.16;;;10.89;77.62
41688;BME280;27371;42.686;23.362;2023-02-28T10:34:39;165046.19;;;10.92;76.79
41688;BME280;27371;42.686;23.362;2023-02-28T10:37:04;165067.56;;;11.01;76.80
41688;BME280;27371;42.686;23.362;2023-02-28T10:39:44;165087.63;;;11.08;76.58
41688;BME280;27371;42.686;23.362;2023-02-28T10:42:27;165131.72;;;11.25;75.31
41688;BME280;27371;42.686;23.362;2023-02-28T10:45:15;165103.66;;;11.14;75.29
41688;BME280;27371;42.686;23.362;2023-02-28T10:47:56;165107.63;;;11.16;75.38
41688;BME280;27371;42.686;23.362;2023-02-28T10:52:53;165092.94;;;11.10;73.84
41688;BME280;27371;42.686;23.362;2023-02-28T10:55:24;165095.63;;;11.11;74.77
41688;BME280;27371;42.686;23.362;2023-02-28T10:57:51;165106.31;;;11.15;74.93
41688;BME280;27371;42.686;23.362;2023-02-28T11:00:19;165107.63;;;11.16;75.62
41688;BME280;27371;42.686;23.362;2023-02-28T11:02:45;165107.63;;;11.16;75.64
41688;BME280;27371;42.686;23.362;2023-02-28T11:05:41;165084.91;;;11.07;74.68
41688;BME280;27371;42.686;23.362;2023-02-28T11:08:17;164999.38;;;10.75;76.54
41688;BME280;27371;42.686;23.362;2023-02-28T11:11:04;164980.69;;;10.67;76.23
41688;BME280;27371;42.686;23.362;2023-02-28T11:13:35;164974.00;;;10.65;76.29
41688;BME280;27371;42.686;23.362;2023-02-28T11:16:07;164976.66;;;10.66;76.54
41688;BME280;27371;42.686;23.362;2023-02-28T11:21:06;164947.25;;;10.55;75.05
41688;BME280;27371;42.686;23.362;2023-02-28T11:23:34;164907.19;;;10.39;75.46
41688;BME280;27371;42.686;23.362;2023-02-28T11:26:03;164884.44;;;10.31;76.96
41688;BME280;27371;42.686;23.362;2023-02-28T11:28:35;164893.84;;;10.34;77.68
41688;BME280;27371;42.686;23.362;2023-02-28T11:33:31;164929.91;;;10.48;77.60
41688;BME280;27371;42.686;23.362;2023-02-28T11:36:04;164908.53;;;10.40;76.41
41688;BME280;27371;42.686;23.362;2023-02-28T11:38:34;164979.34;;;10.67;76.46
41688;BME280;27371;42.686;23.362;2023-02-28T11:46:48;164975.34;;;10.65;76.39
41688;BME280;27371;42.686;23.362;2023-02-28T11:52:02;165014.06;;;10.80;76.52
41688;BME280;27371;42.686;23.362;2023-02-28T12:03:39;165051.53;;;10.95;74.39
41688;BME280;27371;42.686;23.362;2023-02-28T12:09:08;165074.25;;;11.03;73.83
41688;BME280;27371;42.686;23.362;2023-02-28T12:11:54;165036.81;;;10.89;74.57
41688;BME280;27371;42.686;23.362;2023-02-28T12:19:21;165028.75;;;10.86;74.54
41688;BME280;27371;42.686;23.362;2023-02-28T12:22:00;165044.84;;;10.92;74.40
41688;BME280;27371;42.686;23.362;2023-02-28T12:27:12;165008.75;;;10.78;74.37
41688;BME280;27371;42.686;23.362;2023-02-28T12:29:50;164911.19;;;10.41;73.99
41688;BME280;27371;42.686;23.362;2023-02-28T12:32:38;164921.91;;;10.45;76.04
41688;BME280;27371;42.686;23.362;2023-02-28T12:42:43;165078.22;;;11.05;73.72
41688;BME280;27371;42.686;23.362;2023-02-28T12:45:23;165090.28;;;11.09;74.06
41688;BME280;27371;42.686;23.362;2023-02-28T12:47:58;165117.03;;;11.20;73.25
41688;BME280;27371;42.686;23.362;2023-02-28T12:50:26;165126.38;;;11.23;71.74
41688;BME280;27371;42.686;23.362;2023-02-28T12:53:18;165098.28;;;11.12;71.48
41688;BME280;27371;42.686;23.362;2023-02-28T12:56:03;165125.03;;;11.23;71.47
41688;BME280;27371;42.686;23.362;2023-02-28T12:58:41;165088.94;;;11.09;71.51
41688;BME280;27371;42.686;23.362;2023-02-28T13:09:18;165090.28;;;11.09;71.08
41688;BME280;27371;42.686;23.362;2023-02-28T13:11:49;165123.72;;;11.22;71.22
41688;BME280;27371;42.686;23.362;2023-02-28T13:14:23;165126.38;;;11.23;70.13
41688;BME280;27371;42.686;23.362;2023-02-28T13:19:36;165129.03;;;11.24;69.60
41688;BME280;27371;42.686;23.362;2023-02-28T13:22:03;165102.31;;;11.14;70.58
41688;BME280;27371;42.686;23.362;2023-02-28T13:24:40;165119.69;;;11.21;70.34
41688;BME280;27371;42.686;23.362;2023-02-28T13:29:38;165102.31;;;11.14;71.47
41688;BME280;27371;42.686;23.362;2023-02-28T13:34:39;165076.91;;;11.04;71.12
41688;BME280;27371;42.686;23.362;2023-02-28T13:47:49;165027.44;;;10.85;73.28
41688;BME280;27371;42.686;23.362;2023-02-28T14:01:16;165051.53;;;10.95;71.88
41688;BME280;27371;42.686;23.362;2023-02-28T14:06:54;165051.53;;;10.95;72.02
41688;BME280;27371;42.686;23.362;2023-02-28T14:09:25;165040.81;;;10.90;71.62
41688;BME280;27371;42.686;23.362;2023-02-28T14:11:55;165011.41;;;10.79;71.97
41688;BME280;27371;42.686;23.362;2023-02-28T14:17:21;165031.47;;;10.87;71.92
41688;BME280;27371;42.686;23.362;2023-02-28T14:19:47;165010.09;;;10.79;72.40
41688;BME280;27371;42.686;23.362;2023-02-28T14:26:20;164957.97;;;10.59;73.47
41688;BME280;27371;42.686;23.362;2023-02-28T14:28:47;164920.53;;;10.44;73.93
41688;BME280;27371;42.686;23.362;2023-02-28T14:31:25;164897.81;;;10.36;74.49
41688;BME280;27371;42.686;23.362;2023-02-28T14:33:57;164893.84;;;10.34;74.71
41688;BME280;27371;42.686;23.362;2023-02-28T14:36:32;164876.44;;;10.28;75.16
41688;BME280;27371;42.686;23.362;2023-02-28T14:39:05;164876.44;;;10.28;75.43
41688;BME280;27371;42.686;23.362;2023-02-28T14:41:32;164861.69;;;10.22;75.53
41688;BME280;27371;42.686;23.362;2023-02-28T14:44:01;164856.34;;;10.20;76.21
41688;BME280;27371;42.686;23.362;2023-02-28T14:46:37;164835.00;;;10.12;76.02
41688;BME280;27371;42.686;23.362;2023-02-28T14:49:09;164805.56;;;10.00;75.92
41688;BME280;27371;42.686;23.362;2023-02-28T14:51:37;164776.19;;;9.89;76.32
41688;BME280;27371;42.686;23.362;2023-02-28T14:54:03;164758.84;;;9.82;77.33
41688;BME280;27371;42.686;23.362;2023-02-28T14:56:37;164762.81;;;9.84;77.91
41688;BME280;27371;42.686;23.362;2023-02-28T14:59:04;164752.16;;;9.80;78.10
41688;BME280;27371;42.686;23.362;2023-02-28T15:01:31;164737.47;;;9.74;77.83
41688;BME280;27371;42.686;23.362;2023-02-28T15:04:05;164762.81;;;9.84;77.88
41688;BME280;27371;42.686;23.362;2023-02-28T15:06:32;164749.50;;;9.79;78.42
41688;BME280;27371;42.686;23.362;2023-02-28T15:09:30;164748.13;;;9.78;79.15
41688;BME280;27371;42.686;23.362;2023-02-28T15:11:56;164757.50;;;9.82;78.98
41688;BME280;27371;42.686;23.362;2023-02-28T15:14:21;164768.19;;;9.86;78.84
41688;BME280;27371;42.686;23.362;2023-02-28T15:16:52;164762.81;;;9.84;78.45
41688;BME280;27371;42.686;23.362;2023-02-28T15:19:35;164773.53;;;9.88;78.45